Time;durP1;ratioP1;P1;durP2;ratioP2;P2;SDS_P1;SDS_P2;PMS_P1;PMS_P2;Temp;Humidity;BMP_temperature;BMP_pressure;BME280_temperature;BME280_humidity;BME280_pressure;Samples;Min_cycle;Max_cycle;Signal;HPM_P1;HPM_P2
2021/11/19 00:02:06;;;;;;;21.50;9.70;;;;;;;7.35;80.64;100053.93;103355;1311;97969;-65
2021/11/19 00:04:39;;;;;;;18.20;9.80;;;;;;;7.34;80.77;100032.35;103252;1312;138558;-65
2021/11/19 00:07:11;;;;;;;20.70;10.80;;;;;;;7.33;80.83;100029.60;104552;1312;108910;-64
2021/11/19 00:09:43;;;;;;;18.80;10.90;;;;;;;7.34;80.89;100030.43;104427;1309;165688;-65
2021/11/19 00:12:15;;;;;;;22.00;11.70;;;;;;;7.32;80.93;100030.48;104644;1311;95940;-65
2021/11/19 00:14:47;;;;;;;22.30;11.40;;;;;;;7.30;81.02;100031.41;104581;1312;138828;-65
2021/11/19 00:17:19;;;;;;;21.60;11.20;;;;;;;7.29;81.10;100018.27;103941;1314;112437;-65
2021/11/19 00:19:51;;;;;;;16.20;9.80;;;;;;;7.29;81.34;100018.63;104251;1312;108964;-65
2021/11/19 00:22:23;;;;;;;17.60;9.80;;;;;;;7.26;81.27;100011.26;103389;1311;138681;-65
2021/11/19 00:24:55;;;;;;;17.90;10.40;;;;;;;7.24;81.70;100009.58;104610;1312;95956;-65
2021/11/19 00:27:27;;;;;;;20.60;10.00;;;;;;;7.21;81.75;100014.48;104538;1308;139791;-65
2021/11/19 00:30:05;;;;;;;18.40;10.70;;;;;;;7.20;81.82;100012.95;104531;1312;112509;-65
2021/11/19 00:32:37;;;;;;;16.10;10.60;;;;;;;7.16;81.88;100012.67;104629;1312;109053;-65
2021/11/19 00:35:11;;;;;;;20.30;10.50;;;;;;;7.13;82.02;100014.46;103418;1318;137984;-65
2021/11/19 00:37:46;;;;;;;21.00;10.30;;;;;;;7.12;82.10;100011.39;103625;1314;97797;-65
2021/11/19 00:40:23;;;;;;;18.10;9.80;;;;;;;7.12;82.17;100006.73;104209;1313;139878;-65
2021/11/19 00:42:54;;;;;;;16.90;9.40;;;;;;;7.12;82.22;100000.49;104680;1314;111631;-65
2021/11/19 00:45:27;;;;;;;17.20;9.50;;;;;;;7.14;82.19;99997.52;103631;1317;138849;-65
2021/11/19 00:48:00;;;;;;;16.10;9.50;;;;;;;7.15;82.34;99994.54;104757;1311;107650;-65
2021/11/19 00:50:37;;;;;;;16.30;10.40;;;;;;;7.16;82.45;99997.28;104740;1311;96049;-65
2021/11/19 00:53:10;;;;;;;15.80;10.30;;;;;;;7.15;82.55;99989.52;104548;1309;137480;-65
2021/11/19 00:55:43;;;;;;;16.50;10.10;;;;;;;7.12;82.61;99980.27;103957;1313;112546;-66
2021/11/19 00:58:17;;;;;;;20.00;10.10;;;;;;;7.09;82.62;99978.27;103191;1313;138898;-65
2021/11/19 01:00:53;;;;;;;18.00;10.50;;;;;;;7.07;82.97;99978.66;103709;1312;109049;-65
2021/11/19 01:03:25;;;;;;;17.70;9.70;;;;;;;7.07;83.00;99974.16;103541;1311;138842;-65
2021/11/19 01:05:58;;;;;;;14.30;9.50;;;;;;;7.07;82.98;99975.20;103633;1311;97879;-64
2021/11/19 01:08:50;;;;;;;15.00;9.10;;;;;;;7.03;83.31;99968.71;104048;1314;140184;-66
2021/11/19 01:11:25;;;;;;;13.70;9.00;;;;;;;7.01;83.36;99966.34;104611;1312;108964;-65
2021/11/19 01:14:00;;;;;;;15.00;9.40;;;;;;;7.01;83.38;99958.73;104544;1314;107858;-65
2021/11/19 01:16:37;;;;;;;13.80;9.70;;;;;;;7.00;83.57;99961.68;103863;1311;137991;-64
2021/11/19 01:19:12;;;;;;;13.70;9.70;;;;;;;6.99;83.81;99959.97;103303;1310;97740;-64
2021/11/19 01:21:47;;;;;;;13.20;9.30;;;;;;;6.94;84.18;99971.14;104526;1308;137671;-64
2021/11/19 01:24:21;;;;;;;12.40;8.60;;;;;;;6.92;84.25;99961.52;104645;1311;107906;-64
2021/11/19 01:26:53;;;;;;;11.70;7.60;;;;;;;6.89;84.31;99957.09;104508;1312;139763;-65
2021/11/19 01:29:25;;;;;;;15.30;9.30;;;;;;;6.88;84.10;99962.66;104040;1310;96235;-64
2021/11/19 01:32:00;;;;;;;12.90;8.40;;;;;;;6.88;84.39;99966.11;103607;1311;97974;-64
2021/11/19 01:34:53;;;;;;;11.20;8.20;;;;;;;6.91;84.51;99962.25;103772;1313;139020;-64
2021/11/19 01:37:40;;;;;;;10.90;8.30;;;;;;;6.93;84.58;99952.69;103563;1312;109169;-63
2021/11/19 01:40:27;;;;;;;9.00;7.60;;;;;;;6.93;84.50;99951.12;104573;1313;139613;-64
2021/11/19 01:43:07;;;;;;;9.50;8.10;;;;;;;6.92;84.76;99951.67;104550;1313;97094;-64
2021/11/19 01:45:44;;;;;;;16.20;9.60;;;;;;;6.90;84.73;99946.37;104565;1312;137466;-64
2021/11/19 01:48:19;;;;;;;10.50;8.60;;;;;;;6.86;84.85;99937.29;103563;1314;112021;-64
2021/11/19 01:50:55;;;;;;;12.80;8.70;;;;;;;6.85;84.88;99934.04;103396;1312;138762;-65
2021/11/19 01:53:30;;;;;;;9.10;7.80;;;;;;;6.87;85.07;99926.74;104403;1310;107937;-64
2021/11/19 02:00:32;;;;;;;8.70;7.60;;;;;;;6.91;85.16;99925.08;104290;1308;96172;-64
2021/11/19 02:03:08;;;;;;;8.80;7.20;;;;;;;6.93;85.30;99922.09;104027;1315;112580;-63
2021/11/19 02:05:50;;;;;;;8.70;7.10;;;;;;;6.98;85.44;99922.48;104548;1311;137934;-64
2021/11/19 02:08:24;;;;;;;8.60;6.70;;;;;;;7.02;85.21;99933.33;104636;1312;108497;-63
2021/11/19 02:11:26;;;;;;;9.30;7.50;;;;;;;7.02;85.30;99920.17;104200;1314;138068;-63
2021/11/19 02:14:06;;;;;;;9.60;7.80;;;;;;;7.01;85.17;99920.72;103784;1311;97851;-63
2021/11/19 02:16:42;;;;;;;8.50;6.90;;;;;;;6.97;85.26;99920.27;103941;1312;137443;-63
2021/11/19 02:19:16;;;;;;;9.00;7.00;;;;;;;6.95;85.55;99911.14;104629;1313;109002;-64
2021/11/19 02:21:51;;;;;;;8.50;6.40;;;;;;;6.95;85.61;99923.94;103493;1313;140273;-65
2021/11/19 02:24:27;;;;;;;7.40;6.10;;;;;;;6.96;85.56;99919.42;103290;1311;97874;-65
2021/11/19 02:27:07;;;;;;;8.10;6.40;;;;;;;6.97;85.69;99915.59;103378;1312;97859;-65
2021/11/19 02:29:56;;;;;;;8.60;6.10;;;;;;;6.97;85.81;99909.02;103059;1311;138028;-65
2021/11/19 02:32:32;;;;;;;7.20;5.50;;;;;;;6.97;85.95;99914.04;103226;1312;108638;-63
2021/11/19 02:35:07;;;;;;;8.50;5.90;;;;;;;6.99;85.76;99913.82;103256;1307;138369;-63
2021/11/19 02:37:43;;;;;;;6.90;5.60;;;;;;;7.00;85.95;99910.18;104520;1311;95846;-63
2021/11/19 02:40:18;;;;;;;8.10;6.20;;;;;;;7.03;86.08;99917.23;103802;1315;137975;-64
2021/11/19 02:42:54;;;;;;;8.80;6.20;;;;;;;7.01;86.13;99919.15;104598;1315;111168;-64
2021/11/19 02:45:33;;;;;;;9.30;7.50;;;;;;;7.01;86.05;99924.52;103789;1312;137843;-65
2021/11/19 02:48:08;;;;;;;7.60;6.10;;;;;;;6.99;86.14;99928.52;104606;1312;109109;-63
2021/11/19 02:50:41;;;;;;;6.70;6.00;;;;;;;6.98;86.28;99924.39;103799;1312;97843;-65
2021/11/19 02:53:16;;;;;;;6.30;5.70;;;;;;;6.98;86.56;99919.70;103182;1311;138671;-65
2021/11/19 02:55:52;;;;;;;6.10;5.40;;;;;;;6.98;86.61;99914.36;103233;1312;112751;-65
2021/11/19 02:58:27;;;;;;;6.50;5.60;;;;;;;6.98;86.68;99917.83;103172;1314;138355;-66
2021/11/19 03:01:06;;;;;;;7.10;5.40;;;;;;;7.00;86.71;99916.06;103774;1317;107895;-65
2021/11/19 03:03:40;;;;;;;5.90;4.90;;;;;;;7.01;86.62;99910.17;104450;1316;138612;-65
2021/11/19 03:06:13;;;;;;;5.50;4.80;;;;;;;6.99;86.58;99905.54;103287;1312;97783;-64
2021/11/19 03:08:46;;;;;;;6.20;5.20;;;;;;;6.98;86.73;99904.33;103419;1311;112530;-65
2021/11/19 03:11:18;;;;;;;5.30;4.70;;;;;;;7.00;86.99;99904.99;103187;1312;139249;-65
2021/11/19 03:13:51;;;;;;;5.80;5.20;;;;;;;7.01;86.85;99902.21;104709;1312;109128;-66
2021/11/19 03:16:26;;;;;;;8.10;5.60;;;;;;;7.03;86.99;99906.48;103855;1313;138244;-64
2021/11/19 03:18:58;;;;;;;7.50;6.50;;;;;;;7.04;87.08;99912.17;103369;1311;97747;-65
2021/11/19 03:21:31;;;;;;;6.10;5.60;;;;;;;7.03;87.06;99910.98;103262;1311;137627;-65
2021/11/19 03:24:05;;;;;;;6.70;5.60;;;;;;;7.02;87.27;99908.43;103343;1312;108807;-65
2021/11/19 03:26:38;;;;;;;7.20;5.60;;;;;;;7.00;87.50;99916.05;104786;1313;108957;-63
2021/11/19 03:29:12;;;;;;;7.10;5.70;;;;;;;7.01;87.22;99915.20;103243;1313;138335;-63
2021/11/19 03:31:47;;;;;;;5.10;4.60;;;;;;;7.02;87.39;99921.91;103335;1311;97850;-64
2021/11/19 03:34:20;;;;;;;5.00;4.60;;;;;;;7.04;87.34;99928.60;103373;1316;138334;-64
2021/11/19 03:36:55;;;;;;;6.20;5.40;;;;;;;7.06;87.38;99922.67;103294;1314;109101;-64
2021/11/19 03:39:30;;;;;;;5.60;5.10;;;;;;;7.10;87.74;99911.34;103271;1313;138497;-63
2021/11/19 03:42:04;;;;;;;6.50;5.60;;;;;;;7.13;87.55;99914.20;103216;1313;97834;-63
2021/11/19 03:44:44;;;;;;;8.00;6.70;;;;;;;7.12;87.60;99909.88;104435;1314;96995;-64
2021/11/19 03:47:20;;;;;;;9.10;7.70;;;;;;;7.10;87.44;99911.14;104476;1313;136406;-64
2021/11/19 03:49:54;;;;;;;8.10;6.50;;;;;;;7.07;87.66;99913.30;104547;1314;107297;-64
2021/11/19 03:52:32;;;;;;;6.30;5.60;;;;;;;7.07;87.55;99908.99;103384;1313;138340;-64
2021/11/19 03:55:10;;;;;;;6.60;5.90;;;;;;;7.06;87.69;99911.95;104346;1313;96094;-64
2021/11/19 03:57:43;;;;;;;5.30;4.80;;;;;;;7.07;87.71;99919.54;103293;1313;138354;-63
2021/11/19 04:00:19;;;;;;;7.10;5.30;;;;;;;7.06;87.66;99915.73;103284;1314;112416;-63
2021/11/19 04:02:52;;;;;;;6.30;5.30;;;;;;;7.08;88.01;99917.77;103979;1313;109007;-65
2021/11/19 04:05:27;;;;;;;5.60;5.10;;;;;;;7.09;88.27;99922.07;103348;1314;138269;-64
2021/11/19 04:08:00;;;;;;;5.20;4.50;;;;;;;7.10;88.05;99932.08;103650;1312;95827;-64
2021/11/19 04:10:39;;;;;;;5.80;4.70;;;;;;;7.11;88.20;99932.21;103139;1315;138322;-65
2021/11/19 04:13:11;;;;;;;7.00;5.30;;;;;;;7.13;88.33;99925.43;103152;1312;112539;-64
2021/11/19 04:15:51;;;;;;;5.40;4.90;;;;;;;7.15;88.23;99928.83;103253;1313;138371;-65
2021/11/19 04:18:24;;;;;;;4.90;4.40;;;;;;;7.18;88.31;99936.38;103249;1315;109013;-65
2021/11/19 04:20:57;;;;;;;5.30;4.60;;;;;;;7.19;88.22;99930.66;103327;1315;97858;-64
2021/11/19 04:23:30;;;;;;;5.70;5.10;;;;;;;7.20;88.28;99932.38;104581;1308;138599;-64
2021/11/19 04:26:03;;;;;;;5.20;4.40;;;;;;;7.23;88.30;99926.59;104587;1312;112057;-64
2021/11/19 04:28:36;;;;;;;5.30;4.70;;;;;;;7.24;88.32;99926.23;103215;1313;137578;-65
2021/11/19 04:31:31;;;;;;;6.10;5.30;;;;;;;7.25;88.08;99926.89;103202;1314;108907;-65
2021/11/19 04:34:05;;;;;;;6.00;5.40;;;;;;;7.24;88.20;99923.45;103563;1314;137956;-63
2021/11/19 04:36:40;;;;;;;5.60;5.10;;;;;;;7.23;88.28;99923.84;104068;1315;96593;-65
2021/11/19 04:39:13;;;;;;;5.80;5.30;;;;;;;7.22;88.25;99928.87;103220;1313;112691;-64
2021/11/19 04:41:48;;;;;;;5.20;4.70;;;;;;;7.24;88.35;99924.66;103129;1313;138216;-64
2021/11/19 04:44:21;;;;;;;5.50;4.90;;;;;;;7.26;88.47;99926.70;103330;1314;107901;-64
2021/11/19 04:46:54;;;;;;;6.30;4.60;;;;;;;7.28;88.43;99919.73;103240;1313;138257;-64
2021/11/19 04:49:27;;;;;;;5.30;4.80;;;;;;;7.33;88.49;99920.80;103364;1313;99595;-64
2021/11/19 04:52:00;;;;;;;5.90;4.60;;;;;;;7.36;88.57;99925.75;103462;1316;138643;-64
2021/11/19 04:54:33;;;;;;;5.00;4.50;;;;;;;7.39;88.47;99927.27;103615;1318;108921;-65
2021/11/19 04:57:07;;;;;;;5.90;4.70;;;;;;;7.40;88.46;99921.52;103445;1316;108894;-64
2021/11/19 04:59:39;;;;;;;6.00;5.40;;;;;;;7.43;88.69;99919.20;104547;1314;138942;-64
2021/11/19 05:02:14;;;;;;;6.80;6.20;;;;;;;7.43;88.48;99915.20;104024;1318;95933;-64
2021/11/19 05:04:53;;;;;;;8.20;7.40;;;;;;;7.42;88.73;99921.98;104656;1312;137490;-64
2021/11/19 05:07:26;;;;;;;7.40;6.70;;;;;;;7.41;88.94;99922.20;104298;1312;108991;-64
2021/11/19 05:10:00;;;;;;;6.20;5.60;;;;;;;7.41;88.97;99930.99;103182;1311;137555;-66
2021/11/19 05:12:37;;;;;;;6.30;5.70;;;;;;;7.42;88.82;99933.22;104730;1311;96057;-64
2021/11/19 05:15:13;;;;;;;5.90;5.30;;;;;;;7.44;88.96;99930.92;103727;1314;96583;-65
2021/11/19 05:17:46;;;;;;;5.90;5.40;;;;;;;7.49;88.99;99931.49;104598;1314;138103;-64
2021/11/19 05:20:21;;;;;;;6.50;5.90;;;;;;;7.51;88.99;99923.11;104321;1312;109096;-64
2021/11/19 05:22:54;;;;;;;6.70;6.00;;;;;;;7.53;88.92;99920.31;104417;1314;138369;-65
2021/11/19 05:25:30;;;;;;;6.40;5.80;;;;;;;7.57;89.08;99927.51;103907;1315;96646;-64
2021/11/19 05:28:03;;;;;;;6.90;6.30;;;;;;;7.62;89.28;99933.95;103328;1312;139103;-65
2021/11/19 05:30:37;;;;;;;7.30;6.40;;;;;;;7.65;89.08;99933.16;103879;1313;112233;-64
2021/11/19 05:33:14;;;;;;;8.30;7.20;;;;;;;7.71;89.10;99932.33;103463;1312;108937;-65
2021/11/19 05:35:49;;;;;;;8.10;7.20;;;;;;;7.73;88.94;99940.41;103286;1311;138142;-64
2021/11/19 05:38:23;;;;;;;7.80;6.70;;;;;;;7.77;88.97;99939.95;103398;1316;97887;-64
2021/11/19 05:40:56;;;;;;;9.10;6.90;;;;;;;7.79;88.82;99943.37;104568;1312;138422;-64
2021/11/19 05:43:30;;;;;;;9.30;8.40;;;;;;;7.79;88.67;99944.05;104151;1315;112738;-65
2021/11/19 05:46:18;;;;;;;9.30;8.40;;;;;;;7.81;88.79;99945.21;104488;1312;137829;-65
2021/11/19 05:48:55;;;;;;;11.30;10.10;;;;;;;7.83;88.86;99938.25;104111;1315;108990;-65
2021/11/19 05:51:29;;;;;;;10.10;9.10;;;;;;;7.82;88.63;99937.57;104470;1315;138287;-66
2021/11/19 05:54:02;;;;;;;8.90;8.10;;;;;;;7.81;88.79;99936.92;104446;1314;95990;-65
2021/11/19 05:56:35;;;;;;;8.00;7.20;;;;;;;7.80;88.79;99924.48;103430;1316;112408;-64
2021/11/19 05:59:13;;;;;;;9.10;8.10;;;;;;;7.81;88.73;99923.23;104303;1312;138782;-64
2021/11/19 06:02:06;;;;;;;8.80;7.50;;;;;;;7.85;88.99;99908.75;103644;1311;108999;-64
2021/11/19 06:04:55;;;;;;;7.70;6.90;;;;;;;7.89;88.86;99901.20;104439;1312;138675;-65
2021/11/19 06:07:35;;;;;;;7.80;7.10;;;;;;;7.91;88.83;99904.83;103215;1318;98152;-64
2021/11/19 06:10:10;;;;;;;7.70;6.90;;;;;;;7.90;88.67;99916.59;103179;1308;138246;-64
2021/11/19 06:12:45;;;;;;;7.40;6.70;;;;;;;7.92;88.75;99924.55;104655;1312;109204;-65
2021/11/19 06:15:21;;;;;;;7.40;6.70;;;;;;;7.93;88.78;99930.39;104537;1308;109218;-64
2021/11/19 06:17:58;;;;;;;8.90;8.10;;;;;;;7.96;88.94;99924.60;104468;1315;138527;-65
2021/11/19 06:20:37;;;;;;;8.00;7.10;;;;;;;7.99;89.01;99920.87;104651;1315;96363;-65
2021/11/19 06:23:19;;;;;;;8.60;7.70;;;;;;;8.03;88.92;99933.05;104477;1311;137685;-65
2021/11/19 06:25:53;;;;;;;9.90;9.00;;;;;;;8.03;88.93;99931.13;104579;1312;107675;-65
2021/11/19 06:28:28;;;;;;;9.30;8.50;;;;;;;8.04;89.00;99938.55;103843;1312;137566;-64
2021/11/19 06:31:02;;;;;;;7.90;7.10;;;;;;;8.05;88.72;99940.94;103269;1317;98439;-64
2021/11/19 06:33:35;;;;;;;8.30;7.50;;;;;;;8.07;88.98;99940.73;104215;1310;138179;-65
2021/11/19 06:36:09;;;;;;;9.00;8.00;;;;;;;8.09;88.90;99946.58;103791;1316;112519;-64
2021/11/19 06:38:44;;;;;;;8.50;7.80;;;;;;;8.12;89.06;99957.73;104600;1313;109146;-65
2021/11/19 06:41:20;;;;;;;7.90;7.20;;;;;;;8.16;88.94;99960.75;104567;1312;138950;-65
2021/11/19 06:44:14;;;;;;;8.40;7.50;;;;;;;8.18;88.89;99959.30;104595;1316;96197;-65
2021/11/19 06:47:19;;;;;;;8.50;7.70;;;;;;;8.20;88.91;99960.98;103121;1318;139253;-64
2021/11/19 06:50:13;;;;;;;8.30;7.40;;;;;;;8.21;88.87;99964.44;103353;1316;112693;-65
2021/11/19 06:53:08;;;;;;;7.90;7.20;;;;;;;8.24;89.09;99954.80;103277;1316;139403;-64
2021/11/19 06:56:00;;;;;;;9.20;8.30;;;;;;;8.27;89.03;99953.52;104550;1312;109381;-64
2021/11/19 06:58:52;;;;;;;9.40;8.40;;;;;;;8.27;88.85;99945.40;104509;1314;138029;-65
2021/11/19 07:01:25;;;;;;;9.80;8.80;;;;;;;8.24;89.05;99943.38;103464;1316;98073;-66
2021/11/19 07:03:57;;;;;;;9.40;8.60;;;;;;;8.25;89.25;99948.38;103121;1315;138473;-66
2021/11/19 07:06:31;;;;;;;9.70;8.80;;;;;;;8.24;89.18;99946.67;103230;1314;107930;-64
2021/11/19 07:09:04;;;;;;;8.60;7.40;;;;;;;8.24;89.33;99940.07;103266;1316;109074;-64
2021/11/19 07:11:38;;;;;;;9.30;8.40;;;;;;;8.25;89.23;99943.01;103095;1315;138688;-64
2021/11/19 07:14:12;;;;;;;8.60;7.80;;;;;;;8.26;89.44;99949.74;104004;1312;96228;-65
2021/11/19 07:16:46;;;;;;;9.60;8.60;;;;;;;8.29;89.49;99946.02;103206;1311;138054;-65
2021/11/19 07:19:22;;;;;;;10.00;8.30;;;;;;;8.32;89.48;99963.95;103260;1308;108913;-66
2021/11/19 07:21:56;;;;;;;10.30;8.90;;;;;;;8.34;89.43;99972.75;103176;1316;138832;-64
2021/11/19 07:24:30;;;;;;;9.50;8.50;;;;;;;8.37;89.53;99972.48;103824;1319;97999;-64
2021/11/19 07:27:08;;;;;;;10.00;9.00;;;;;;;8.42;89.39;99978.08;103843;1318;96163;-64
2021/11/19 07:29:42;;;;;;;9.50;8.50;;;;;;;8.46;89.45;99972.61;103661;1318;139309;-63
2021/11/19 07:32:40;;;;;;;48.00;28.80;;;;;;;8.52;89.58;99974.87;103336;1322;107110;-65
2021/11/19 07:35:39;;;;;;;82.50;50.70;;;;;;;8.61;89.78;99977.90;104053;1313;138995;-66
2021/11/19 07:38:42;;;;;;;27.20;17.90;;;;;;;8.67;89.61;99984.84;103157;1316;98157;-64
2021/11/19 07:41:44;;;;;;;15.10;12.30;;;;;;;8.69;89.40;99991.36;104228;1317;139327;-65
2021/11/19 07:44:55;;;;;;;15.30;12.10;;;;;;;8.72;89.36;99988.52;104712;1316;112588;-65
2021/11/19 07:47:48;;;;;;;10.10;7.70;;;;;;;8.77;89.36;99989.21;103904;1320;139369;-64
2021/11/19 07:50:24;;;;;;;7.80;7.00;;;;;;;8.78;89.15;99989.71;104636;1313;105767;-63
2021/11/19 07:52:56;;;;;;;8.10;7.30;;;;;;;8.80;89.05;99979.79;104293;1315;138366;-64
2021/11/19 07:55:29;;;;;;;7.80;7.10;;;;;;;8.82;88.97;99975.39;103499;1312;97900;-64
2021/11/19 07:58:02;;;;;;;8.00;7.20;;;;;;;8.85;89.04;99979.64;104289;1313;138998;-63
2021/11/19 08:00:39;;;;;;;9.70;8.50;;;;;;;8.87;89.03;99978.37;103755;1312;108067;-63
2021/11/19 08:03:14;;;;;;;10.10;9.10;;;;;;;8.88;89.02;99986.83;103363;1313;108884;-63
2021/11/19 08:05:49;;;;;;;9.30;8.40;;;;;;;8.87;88.97;99982.52;103182;1313;137872;-63
2021/11/19 08:08:32;;;;;;;9.20;8.30;;;;;;;8.84;88.80;99985.39;104059;1313;96120;-63
2021/11/19 08:11:19;;;;;;;8.60;7.80;;;;;;;8.82;89.00;99986.13;103105;1314;139139;-64
2021/11/19 08:13:53;;;;;;;8.20;7.50;;;;;;;8.85;89.19;99988.98;104526;1314;107891;-64
2021/11/19 08:16:28;;;;;;;9.50;7.90;;;;;;;8.85;89.05;99984.66;103518;1313;138856;-64
2021/11/19 08:19:21;;;;;;;12.00;8.30;;;;;;;8.88;89.14;99988.74;103296;1314;97870;-65
2021/11/19 08:21:57;;;;;;;10.70;9.40;;;;;;;8.89;89.19;99976.91;103401;1316;138628;-65
2021/11/19 08:24:31;;;;;;;8.90;7.90;;;;;;;8.91;89.25;99975.64;103370;1312;112249;-65
2021/11/19 08:27:08;;;;;;;8.60;7.80;;;;;;;8.92;89.21;99982.20;103432;1316;108878;-64
2021/11/19 08:29:42;;;;;;;8.50;7.50;;;;;;;8.93;89.20;99992.41;103465;1316;138815;-65
2021/11/19 08:32:15;;;;;;;10.40;8.30;;;;;;;8.96;89.27;99998.55;104732;1316;96125;-65
2021/11/19 08:34:48;;;;;;;8.90;8.00;;;;;;;8.95;89.32;99990.23;104219;1316;138468;-64
2021/11/19 08:37:21;;;;;;;10.60;9.50;;;;;;;8.99;89.50;99979.77;103390;1312;112645;-64
2021/11/19 08:39:54;;;;;;;8.80;7.90;;;;;;;8.99;89.51;99985.65;103338;1319;138279;-64
2021/11/19 08:42:27;;;;;;;7.40;6.70;;;;;;;9.00;89.65;99980.57;104485;1313;107810;-64
2021/11/19 08:45:00;;;;;;;7.40;6.60;;;;;;;9.01;89.60;99988.02;104764;1313;96830;-64
2021/11/19 08:47:53;;;;;;;11.10;6.70;;;;;;;9.01;89.60;99982.61;103664;1320;138485;-64
2021/11/19 08:50:29;;;;;;;9.30;7.00;;;;;;;9.03;89.66;99978.58;104795;1313;112600;-65
2021/11/19 08:53:02;;;;;;;7.80;6.30;;;;;;;9.04;89.75;99974.73;103592;1320;138428;-64
2021/11/19 08:55:34;;;;;;;8.80;6.40;;;;;;;9.05;89.66;99968.27;104716;1316;107737;-64
2021/11/19 08:58:07;;;;;;;7.10;6.40;;;;;;;9.07;89.77;99980.85;103795;1315;138489;-63
2021/11/19 09:00:46;;;;;;;7.00;6.00;;;;;;;9.12;89.88;99983.86;104227;1315;96167;-63
2021/11/19 09:03:20;;;;;;;5.90;5.30;;;;;;;9.14;89.85;99979.63;103753;1316;112527;-66
2021/11/19 09:05:54;;;;;;;6.20;5.60;;;;;;;9.19;89.91;99983.31;103750;1317;139254;-65
2021/11/19 09:08:29;;;;;;;6.80;5.80;;;;;;;9.21;89.74;99983.05;103579;1317;108999;-63
2021/11/19 09:11:03;;;;;;;6.50;5.90;;;;;;;9.22;89.55;99984.08;103612;1317;139911;-64
2021/11/19 09:13:37;;;;;;;6.10;5.50;;;;;;;9.22;89.79;99970.71;104718;1315;96346;-64
2021/11/19 09:16:13;;;;;;;6.20;5.70;;;;;;;9.25;89.85;99975.83;104083;1311;139603;-64
2021/11/19 09:19:02;;;;;;;6.50;5.80;;;;;;;9.25;89.81;99971.15;104512;1311;107097;-64
2021/11/19 09:21:39;;;;;;;6.10;5.40;;;;;;;9.28;89.85;99976.25;104571;1315;138717;-65
2021/11/19 09:24:15;;;;;;;6.80;6.10;;;;;;;9.32;89.91;99976.29;104658;1317;96044;-65
2021/11/19 09:26:54;;;;;;;7.70;6.10;;;;;;;9.35;89.91;99974.66;103819;1317;98012;-64
2021/11/19 09:29:31;;;;;;;7.30;6.50;;;;;;;9.37;89.79;99974.23;103360;1317;138109;-64
2021/11/19 09:32:04;;;;;;;9.40;6.60;;;;;;;9.39;89.81;99972.96;103413;1315;108855;-66
2021/11/19 09:34:42;;;;;;;7.10;6.40;;;;;;;9.38;89.85;99974.39;103636;1316;138368;-67
2021/11/19 09:37:14;;;;;;;;;;;;;;;9.36;89.78;99970.98;103402;1311;97850;-67
2021/11/19 09:39:48;;;;;;;6.50;5.80;;;;;;;9.34;89.92;99966.35;103220;1313;124767;-65
2021/11/19 09:42:34;;;;;;;7.30;5.60;;;;;;;9.32;90.12;99966.56;104370;1318;112383;-65
2021/11/19 09:45:41;;;;;;;5.90;5.30;;;;;;;9.34;90.18;99966.17;103569;1317;109175;-65
2021/11/19 09:48:46;;;;;;;5.90;5.30;;;;;;;9.39;90.41;99954.20;104042;1317;139503;-64
2021/11/19 09:51:51;;;;;;;6.60;4.70;;;;;;;9.44;90.28;99963.44;104639;1319;96213;-63
2021/11/19 09:55:07;;;;;;;7.20;5.00;;;;;;;9.47;90.14;99964.20;104564;1314;138257;-64
2021/11/19 09:58:20;;;;;;;6.10;5.40;;;;;;;9.49;90.23;99952.85;104655;1313;112451;-65
2021/11/19 10:01:30;;;;;;;5.60;5.10;;;;;;;9.52;90.12;99950.33;104306;1313;107867;-65
2021/11/19 10:04:36;;;;;;;6.30;4.90;;;;;;;9.56;90.13;99942.36;103537;1320;108392;-65
2021/11/19 10:07:22;;;;;;;5.90;5.30;;;;;;;9.56;90.20;99931.27;104025;1317;138725;-65
2021/11/19 10:10:06;;;;;;;5.90;5.30;;;;;;;9.57;90.09;99936.45;103200;1319;96194;-65
2021/11/19 10:12:43;;;;;;;5.30;4.80;;;;;;;9.58;90.09;99927.73;104206;1317;138575;-65
2021/11/19 10:15:19;;;;;;;6.30;5.30;;;;;;;9.58;90.18;99922.17;103635;1319;108188;-66
2021/11/19 10:18:03;;;;;;;6.40;5.40;;;;;;;9.61;90.22;99919.99;104224;1317;138576;-65
2021/11/19 10:20:43;;;;;;;6.50;5.60;;;;;;;9.63;90.21;99916.77;104320;1323;96166;-65
2021/11/19 10:23:26;;;;;;;6.30;5.00;;;;;;;9.66;90.29;99922.24;104162;1315;139706;-64
2021/11/19 10:26:04;;;;;;;6.60;5.20;;;;;;;9.68;90.22;99919.21;103775;1321;112873;-64
2021/11/19 10:28:39;;;;;;;5.50;4.70;;;;;;;9.72;90.19;99932.84;103374;1321;107965;-64
2021/11/19 10:31:16;;;;;;;5.00;4.50;;;;;;;9.76;90.20;99931.13;103626;1318;138259;-64
2021/11/19 10:34:03;;;;;;;5.30;4.80;;;;;;;9.76;90.19;99930.61;104252;1317;96454;-64
2021/11/19 10:36:44;;;;;;;5.20;4.70;;;;;;;9.78;90.13;99926.90;104273;1321;139135;-64
2021/11/19 10:39:43;;;;;;;5.40;4.90;;;;;;;9.80;90.16;99922.82;104337;1317;112800;-64
2021/11/19 10:42:35;;;;;;;5.20;4.20;;;;;;;9.81;90.29;99914.98;104393;1319;139065;-64
2021/11/19 10:45:41;;;;;;;5.00;4.20;;;;;;;9.83;90.37;99910.58;103825;1314;106216;-64
2021/11/19 10:49:00;;;;;;;4.60;4.10;;;;;;;9.85;90.33;99901.11;104511;1313;139079;-64
2021/11/19 10:52:05;;;;;;;4.30;3.80;;;;;;;9.89;90.29;99902.74;104632;1313;96027;-64
2021/11/19 10:55:09;;;;;;;5.60;4.00;;;;;;;9.87;90.20;99891.31;104529;1314;138107;-65
2021/11/19 10:58:17;;;;;;;4.10;3.70;;;;;;;9.87;90.30;99897.56;104416;1316;109145;-64
2021/11/19 11:01:07;;;;;;;4.70;4.10;;;;;;;9.88;90.54;99882.61;104070;1323;138322;-64
2021/11/19 11:04:01;;;;;;;5.80;4.60;;;;;;;9.89;90.57;99893.36;103312;1323;99496;-65
2021/11/19 11:06:39;;;;;;;5.80;4.30;;;;;;;9.90;90.40;99890.20;104084;1323;138529;-64
2021/11/19 11:09:42;;;;;;;4.90;4.10;;;;;;;9.92;90.52;99893.77;104166;1324;112458;-64
2021/11/19 11:12:23;;;;;;;7.30;5.20;;;;;;;9.97;90.58;99890.96;102573;1328;138434;-67
2021/11/19 11:15:19;;;;;;;7.60;5.30;;;;;;;10.01;90.43;99891.88;103444;1326;109055;-64
2021/11/19 11:18:01;;;;;;;7.70;6.20;;;;;;;10.03;90.35;99889.01;102183;1329;138583;-64
2021/11/19 11:20:36;;;;;;;18.40;6.80;;;;;;;10.04;90.19;99885.67;102332;1329;97956;-65
2021/11/19 11:23:24;;;;;;;6.60;5.90;;;;;;;10.04;90.33;99885.15;103405;1329;138505;-63
2021/11/19 11:26:01;;;;;;;6.00;5.20;;;;;;;10.03;90.46;99882.94;103469;1329;108973;-63
2021/11/19 11:28:50;;;;;;;7.10;5.80;;;;;;;10.04;90.50;99878.74;102784;1329;109042;-64
2021/11/19 11:31:37;;;;;;;9.90;6.30;;;;;;;10.03;90.49;99887.80;103281;1323;138731;-64
2021/11/19 11:34:21;;;;;;;7.00;5.30;;;;;;;10.05;90.50;99883.92;102679;1327;96236;-64
2021/11/19 11:37:05;;;;;;;7.80;6.00;;;;;;;10.08;90.58;99894.60;102630;1328;138610;-64
2021/11/19 11:39:42;;;;;;;7.70;5.80;;;;;;;10.10;90.59;99893.82;104026;1314;110194;-64
2021/11/19 11:42:21;;;;;;;5.90;5.30;;;;;;;10.14;90.62;99885.68;103527;1319;138625;-64
2021/11/19 11:44:56;;;;;;;5.50;4.60;;;;;;;10.19;90.56;99886.00;104198;1321;97371;-64
2021/11/19 11:47:37;;;;;;;7.50;5.10;;;;;;;10.21;90.63;99879.67;103865;1321;138704;-64
2021/11/19 11:50:29;;;;;;;6.80;5.00;;;;;;;10.23;90.46;99881.38;104652;1313;112392;-65
2021/11/19 11:53:10;;;;;;;6.00;5.10;;;;;;;10.24;90.54;99883.08;104560;1313;139339;-64
2021/11/19 11:55:46;;;;;;;5.10;4.60;;;;;;;10.27;90.47;99886.10;104368;1309;109016;-64
2021/11/19 11:58:31;;;;;;;8.10;4.90;;;;;;;10.31;90.51;99885.64;103183;1313;97881;-64
2021/11/19 12:01:12;;;;;;;4.80;4.30;;;;;;;10.33;90.48;99883.95;103228;1313;138781;-64
2021/11/19 12:03:52;;;;;;;8.70;5.00;;;;;;;10.33;90.27;99883.63;104194;1314;112522;-66
2021/11/19 12:06:28;;;;;;;5.70;4.70;;;;;;;10.33;90.41;99878.26;104526;1313;138492;-64
2021/11/19 12:09:14;;;;;;;5.30;4.80;;;;;;;10.33;90.55;99879.62;104044;1314;109063;-64
2021/11/19 12:12:29;;;;;;;7.10;4.60;;;;;;;10.35;90.55;99877.13;103568;1313;138561;-64
2021/11/19 12:15:25;;;;;;;5.70;4.40;;;;;;;10.35;90.62;99872.59;104768;1313;95865;-65
2021/11/19 12:18:09;;;;;;;5.10;4.10;;;;;;;10.38;90.60;99866.23;103699;1313;138261;-65
2021/11/19 12:20:56;;;;;;;4.30;3.80;;;;;;;10.42;90.63;99865.91;104638;1314;109083;-65
2021/11/19 12:23:46;;;;;;;4.80;3.60;;;;;;;10.48;90.70;99866.21;104479;1313;139631;-64
2021/11/19 12:26:46;;;;;;;3.80;3.40;;;;;;;10.51;90.65;99858.27;104096;1313;97951;-66